createdAt,value
2022-09-22T00:00:39.627Z,1021.45
2022-09-22T00:01:39.627Z,1021.47
2022-09-22T00:02:39.565Z,1021.43
2022-09-22T00:03:39.549Z,1021.43
2022-09-22T00:04:39.537Z,1021.40
2022-09-22T00:05:39.526Z,1021.40
2022-09-22T00:06:39.514Z,1021.40
2022-09-22T00:07:39.504Z,1021.38
2022-09-22T00:08:39.499Z,1021.37
2022-09-22T00:09:39.484Z,1021.36
2022-09-22T00:10:39.474Z,1021.37
2022-09-22T00:11:39.460Z,1021.39
2022-09-22T00:12:39.451Z,1021.35
2022-09-22T00:13:39.438Z,1021.37
2022-09-22T00:14:39.434Z,1021.33
2022-09-22T00:15:39.435Z,1021.40
2022-09-22T00:16:39.493Z,1021.37
2022-09-22T00:17:39.393Z,1021.33
2022-09-22T00:18:39.381Z,1021.34
2022-09-22T00:19:39.375Z,1021.36
2022-09-22T00:20:39.375Z,1021.36
2022-09-22T00:21:39.349Z,1021.33
2022-09-22T00:22:39.338Z,1021.31
2022-09-22T00:23:39.328Z,1021.35
2022-09-22T00:24:39.315Z,1021.32
2022-09-22T00:25:39.305Z,1021.28
2022-09-22T00:26:39.324Z,1021.26
2022-09-22T00:27:39.283Z,1021.30
2022-09-22T00:28:39.271Z,1021.31
2022-09-22T00:29:39.260Z,1021.31
2022-09-22T00:30:39.249Z,1021.30
2022-09-22T00:31:39.312Z,1021.27
2022-09-22T00:32:39.249Z,1021.28
2022-09-22T00:33:39.216Z,1021.29
2022-09-22T00:34:39.205Z,1021.26
2022-09-22T00:35:39.194Z,1021.32
2022-09-22T00:36:39.183Z,1021.31
2022-09-22T00:37:39.175Z,1021.30
2022-09-22T00:38:39.184Z,1021.32
2022-09-22T00:39:39.151Z,1021.28
2022-09-22T00:40:39.208Z,1021.35
2022-09-22T00:41:39.127Z,1021.25
2022-09-22T00:42:39.117Z,1021.30
2022-09-22T00:43:39.106Z,1021.32
2022-09-22T00:44:39.104Z,1021.28
2022-09-22T00:45:39.083Z,1021.30
2022-09-22T00:46:39.134Z,1021.31
2022-09-22T00:47:39.080Z,1021.29
2022-09-22T00:48:39.051Z,1021.26
2022-09-22T00:49:39.043Z,1021.22
2022-09-22T00:50:39.034Z,1021.25
2022-09-22T00:51:39.021Z,1021.33
2022-09-22T00:52:39.005Z,1021.26
2022-09-22T00:53:39.002Z,1021.28
2022-09-22T00:54:38.987Z,1021.23
2022-09-22T00:55:38.973Z,1021.27
2022-09-22T00:56:38.993Z,1021.22
2022-09-22T00:57:38.950Z,1021.22
2022-09-22T00:58:38.940Z,1021.23
2022-09-22T00:59:38.928Z,1021.22
2022-09-22T01:00:38.993Z,1021.21
2022-09-22T01:01:38.940Z,1021.23
2022-09-22T01:02:38.912Z,1021.21
2022-09-22T01:03:38.906Z,1021.21
2022-09-22T01:04:38.874Z,1021.21
2022-09-22T01:05:38.864Z,1021.19
2022-09-22T01:06:38.851Z,1021.19
2022-09-22T01:07:38.840Z,1021.23
2022-09-22T01:08:38.835Z,1021.21
2022-09-22T01:09:38.818Z,1021.22
2022-09-22T01:10:38.808Z,1021.15
2022-09-22T01:11:38.795Z,1021.23
2022-09-22T01:12:38.787Z,1021.20
2022-09-22T01:13:38.774Z,1021.19
2022-09-22T01:14:38.776Z,1021.20
2022-09-22T01:15:38.787Z,1021.21
2022-09-22T01:16:38.740Z,1021.15
2022-09-22T01:17:38.729Z,1021.21
2022-09-22T01:18:38.721Z,1021.17
2022-09-22T01:19:38.727Z,1021.16
2022-09-22T01:20:38.725Z,1021.15
2022-09-22T01:21:38.685Z,1021.14
2022-09-22T01:22:38.677Z,1021.21
2022-09-22T01:23:38.665Z,1021.17
2022-09-22T01:24:38.653Z,1021.20
2022-09-22T01:25:38.642Z,1021.17
2022-09-22T01:26:38.636Z,1021.20
2022-09-22T01:27:38.619Z,1021.21
2022-09-22T01:28:38.607Z,1021.22
2022-09-22T01:29:38.599Z,1021.20
2022-09-22T01:30:38.587Z,1021.18
2022-09-22T01:31:38.703Z,1021.18
2022-09-22T01:32:38.595Z,1021.15
2022-09-22T01:33:38.553Z,1021.12
2022-09-22T01:34:38.542Z,1021.14
2022-09-22T01:35:38.553Z,1021.15
2022-09-22T01:36:38.525Z,1021.14
2022-09-22T01:37:38.510Z,1021.12
2022-09-22T01:38:38.515Z,1021.16
2022-09-22T01:39:38.486Z,1021.17
2022-09-22T01:40:38.601Z,1021.17
2022-09-22T01:41:38.465Z,1021.10
2022-09-22T01:42:38.453Z,1021.13
2022-09-22T01:43:38.443Z,1021.18
2022-09-22T01:44:38.468Z,1021.17
2022-09-22T01:45:38.421Z,1021.10
2022-09-22T01:46:38.461Z,1021.14
2022-09-22T01:47:38.398Z,1021.08
2022-09-22T01:48:38.387Z,1021.13
2022-09-22T01:49:38.383Z,1021.11
2022-09-22T01:50:38.371Z,1021.11
2022-09-22T01:51:38.373Z,1021.16
2022-09-22T01:52:38.342Z,1021.11
2022-09-22T01:53:38.332Z,1021.12
2022-09-22T01:54:38.320Z,1021.11
2022-09-22T01:55:38.309Z,1021.11
2022-09-22T01:56:38.307Z,1021.15
2022-09-22T01:57:38.287Z,1021.13
2022-09-22T01:58:38.275Z,1021.08
2022-09-22T01:59:38.265Z,1021.11
2022-09-22T02:00:38.254Z,1021.11
2022-09-22T02:01:38.390Z,1021.13
2022-09-22T02:02:38.337Z,1021.11
2022-09-22T02:03:38.220Z,1021.12
2022-09-22T02:04:38.210Z,1021.10
2022-09-22T02:05:38.198Z,1021.13
2022-09-22T02:06:38.192Z,1021.09
2022-09-22T02:07:38.196Z,1021.09
2022-09-22T02:08:38.186Z,1021.12
2022-09-22T02:09:38.154Z,1021.11
2022-09-22T02:10:38.144Z,1021.07
2022-09-22T02:11:38.132Z,1021.08
2022-09-22T02:12:38.121Z,1021.10
2022-09-22T02:13:38.109Z,1021.13
2022-09-22T02:14:38.128Z,1021.12
2022-09-22T02:15:38.113Z,1021.15
2022-09-22T02:16:38.078Z,1021.13
2022-09-22T02:17:38.066Z,1021.13
2022-09-22T02:18:38.057Z,1021.21
2022-09-22T02:19:38.043Z,1021.21
2022-09-22T02:20:38.039Z,1021.20
2022-09-22T02:21:38.022Z,1021.18
2022-09-22T02:22:38.010Z,1021.18
2022-09-22T02:23:38.019Z,1021.18
2022-09-22T02:24:37.989Z,1021.18
2022-09-22T02:25:37.977Z,1021.16
2022-09-22T02:26:37.973Z,1021.19
2022-09-22T02:27:37.954Z,1021.19
2022-09-22T02:28:37.944Z,1021.20
2022-09-22T02:29:37.933Z,1021.16
2022-09-22T02:30:37.923Z,1021.18
2022-09-22T02:31:37.970Z,1021.14
2022-09-22T02:32:37.906Z,1021.16
2022-09-22T02:33:38.398Z,1021.17
2022-09-22T02:34:37.878Z,1021.21
2022-09-22T02:35:37.866Z,1021.17
2022-09-22T02:36:37.855Z,1021.16
2022-09-22T02:37:37.845Z,1021.18
2022-09-22T02:38:37.840Z,1021.17
2022-09-22T02:39:37.840Z,1021.20
2022-09-22T02:40:37.847Z,1021.21
2022-09-22T02:41:37.800Z,1021.21
2022-09-22T02:42:37.788Z,1021.19
2022-09-22T02:43:37.779Z,1021.19
2022-09-22T02:44:37.809Z,1021.18
2022-09-22T02:45:37.756Z,1021.21
2022-09-22T02:46:37.768Z,1021.19
2022-09-22T02:47:37.733Z,1021.22
2022-09-22T02:48:37.723Z,1021.21
2022-09-22T02:49:37.710Z,1021.20
2022-09-22T02:50:37.746Z,1021.21
2022-09-22T02:51:37.691Z,1021.22
2022-09-22T02:52:37.678Z,1021.23
2022-09-22T02:53:37.666Z,1021.19
2022-09-22T02:54:37.655Z,1021.18
2022-09-22T02:55:37.673Z,1021.16
2022-09-22T02:56:37.641Z,1021.18
2022-09-22T02:57:37.622Z,1021.16
2022-09-22T02:58:37.612Z,1021.14
2022-09-22T02:59:37.605Z,1021.12
2022-09-22T03:00:37.589Z,1021.13
2022-09-22T03:01:37.660Z,1021.11
2022-09-22T03:02:37.584Z,1021.12
2022-09-22T03:03:37.556Z,1021.06
2022-09-22T03:04:37.555Z,1021.13
2022-09-22T03:05:37.534Z,1021.15
2022-09-22T03:06:37.523Z,1021.14
2022-09-22T03:07:37.512Z,1021.13
2022-09-22T03:08:37.522Z,1021.08
2022-09-22T03:09:37.491Z,1021.12
2022-09-22T03:10:37.478Z,1021.10
2022-09-22T03:11:37.486Z,1021.12
2022-09-22T03:12:37.457Z,1021.10
2022-09-22T03:13:37.444Z,1021.10
2022-09-22T03:14:37.457Z,1021.11
2022-09-22T03:15:37.531Z,1021.11
2022-09-22T03:16:37.413Z,1021.10
2022-09-22T03:17:37.401Z,1021.09
2022-09-22T03:18:37.390Z,1021.09
2022-09-22T03:19:37.379Z,1021.09
2022-09-22T03:20:37.397Z,1021.09
2022-09-22T03:21:37.360Z,1021.07
2022-09-22T03:22:37.345Z,1021.09
2022-09-22T03:23:37.337Z,1021.08
2022-09-22T03:24:37.324Z,1021.12
2022-09-22T03:25:37.313Z,1021.13
2022-09-22T03:26:37.317Z,1021.10
2022-09-22T03:27:37.310Z,1021.10
2022-09-22T03:28:37.279Z,1021.09
2022-09-22T03:29:37.268Z,1021.10
2022-09-22T03:30:37.398Z,1021.07
2022-09-22T03:31:37.246Z,1021.09
2022-09-22T03:32:37.242Z,1021.08
2022-09-22T03:33:37.224Z,1021.07
2022-09-22T03:34:37.213Z,1021.10
2022-09-22T03:35:37.206Z,1021.13
2022-09-22T03:36:37.191Z,1021.14
2022-09-22T03:37:37.179Z,1021.11
2022-09-22T03:38:37.176Z,1021.11
2022-09-22T03:39:37.158Z,1021.12
2022-09-22T03:40:37.205Z,1021.16
2022-09-22T03:41:37.136Z,1021.12
2022-09-22T03:42:37.125Z,1021.11
2022-09-22T03:43:37.134Z,1021.14
2022-09-22T03:44:37.111Z,1021.15
2022-09-22T03:45:37.147Z,1021.12
2022-09-22T03:46:37.081Z,1021.09
2022-09-22T03:47:37.069Z,1021.11
2022-09-22T03:48:39.630Z,1021.11
2022-09-22T03:49:37.048Z,1021.08
2022-09-22T03:50:37.067Z,1021.10
2022-09-22T03:51:37.025Z,1021.10
2022-09-22T03:52:37.015Z,1021.11
2022-09-22T03:53:37.004Z,1021.07
2022-09-22T03:54:36.993Z,1021.08
2022-09-22T03:55:36.981Z,1021.06
2022-09-22T03:56:37.002Z,1021.07
2022-09-22T03:57:36.959Z,1021.07
2022-09-22T03:58:36.950Z,1021.05
2022-09-22T03:59:36.958Z,1021.04
2022-09-22T04:00:36.928Z,1021.03
2022-09-22T04:01:36.944Z,1021.05
2022-09-22T04:02:36.969Z,1021.02
2022-09-22T04:03:36.894Z,1021.01
2022-09-22T04:04:36.900Z,1020.99
2022-09-22T04:05:36.873Z,1021.00
2022-09-22T04:06:36.859Z,1020.99
2022-09-22T04:07:36.851Z,1021.01
2022-09-22T04:08:36.845Z,1021.01
2022-09-22T04:09:36.826Z,1021.00
2022-09-22T04:10:36.816Z,1020.98
2022-09-22T04:11:36.805Z,1020.99
2022-09-22T04:12:36.794Z,1020.99
2022-09-22T04:13:36.782Z,1021.01
2022-09-22T04:14:36.778Z,1020.99
2022-09-22T04:15:36.780Z,1020.97
2022-09-22T04:16:36.813Z,1020.98
2022-09-22T04:17:36.739Z,1021.01
2022-09-22T04:18:36.727Z,1020.99
2022-09-22T04:19:36.717Z,1020.98
2022-09-22T04:20:36.711Z,1021.05
2022-09-22T04:21:36.694Z,1020.97
2022-09-22T04:22:36.683Z,1021.01
2022-09-22T04:23:36.672Z,1020.98
2022-09-22T04:24:36.662Z,1020.97
2022-09-22T04:25:36.651Z,1020.97
2022-09-22T04:26:36.664Z,1021.02
2022-09-22T04:27:36.629Z,1020.98
2022-09-22T04:28:36.616Z,1020.99
2022-09-22T04:29:36.606Z,1020.98
2022-09-22T04:33:11.821Z,1021.05
2022-09-22T04:34:11.753Z,1021.04
2022-09-22T04:35:11.740Z,1021.01
2022-09-22T04:36:11.730Z,1020.99
2022-09-22T04:37:11.719Z,1020.98
2022-09-22T04:38:11.708Z,1021.01
2022-09-22T04:39:11.701Z,1021.02
2022-09-22T04:40:11.753Z,1021.00
2022-09-22T04:41:11.673Z,1021.01
2022-09-22T04:42:11.661Z,1021.00
2022-09-22T04:43:11.649Z,1021.00
2022-09-22T04:44:11.643Z,1021.00
2022-09-22T04:45:11.644Z,1021.02
2022-09-22T04:46:11.684Z,1020.98
2022-09-22T04:47:11.605Z,1021.01
2022-09-22T04:48:11.598Z,1021.02
2022-09-22T04:49:11.603Z,1021.02
2022-09-22T04:50:11.572Z,1021.04
2022-09-22T04:51:11.567Z,1021.05
2022-09-22T04:52:11.549Z,1021.02
2022-09-22T04:53:11.540Z,1021.04
2022-09-22T04:54:11.531Z,1021.05
2022-09-22T04:55:11.515Z,1021.05
2022-09-22T04:56:11.505Z,1021.03
2022-09-22T04:57:11.540Z,1021.02
2022-09-22T04:58:11.496Z,1021.05
2022-09-22T04:59:11.472Z,1021.04
2022-09-22T05:00:11.459Z,1021.04
2022-09-22T05:01:11.533Z,1021.04
2022-09-22T05:02:11.437Z,1021.02
2022-09-22T05:03:11.521Z,1021.01
2022-09-22T05:04:11.417Z,1021.02
2022-09-22T05:05:11.424Z,1021.03
2022-09-22T05:06:11.393Z,1021.04
2022-09-22T05:07:11.381Z,1021.06
2022-09-22T05:08:11.372Z,1021.05
2022-09-22T05:09:11.376Z,1021.02
2022-09-22T05:10:11.357Z,1021.03
2022-09-22T05:11:11.338Z,1021.06
2022-09-22T05:12:11.327Z,1021.09
2022-09-22T05:13:11.313Z,1021.04
2022-09-22T05:14:11.303Z,1021.07
2022-09-22T05:15:11.298Z,1021.09
2022-09-22T05:16:11.361Z,1021.11
2022-09-22T05:17:11.269Z,1021.09
2022-09-22T05:18:11.257Z,1021.12
2022-09-22T05:19:11.246Z,1021.11
2022-09-22T05:20:11.235Z,1021.16
2022-09-22T05:21:11.248Z,1021.14
2022-09-22T05:22:11.212Z,1021.14
2022-09-22T05:23:11.201Z,1021.13
2022-09-22T05:24:11.191Z,1021.14
2022-09-22T05:25:11.182Z,1021.16
2022-09-22T05:26:11.168Z,1021.15
2022-09-22T05:27:11.166Z,1021.16
2022-09-22T05:28:11.144Z,1021.14
2022-09-22T05:29:11.133Z,1021.14
2022-09-22T05:30:11.122Z,1021.17
2022-09-22T05:31:11.111Z,1021.15
2022-09-22T05:32:11.102Z,1021.14
2022-09-22T05:33:11.118Z,1021.16
2022-09-22T05:34:11.077Z,1021.15
2022-09-22T05:35:11.068Z,1021.16
2022-09-22T05:36:11.054Z,1021.13
2022-09-22T05:37:11.063Z,1021.14
2022-09-22T05:38:11.054Z,1021.15
2022-09-22T05:39:11.036Z,1021.16
2022-09-22T05:40:11.072Z,1021.17
2022-09-22T05:41:11.001Z,1021.18
2022-09-22T05:42:11.271Z,1021.18
2022-09-22T05:43:10.976Z,1021.22
2022-09-22T05:44:10.964Z,1021.17
2022-09-22T05:45:10.958Z,1021.23
2022-09-22T05:46:11.005Z,1021.25
2022-09-22T05:47:10.931Z,1021.22
2022-09-22T05:48:10.919Z,1021.23
2022-09-22T05:49:10.911Z,1021.20
2022-09-22T05:50:10.900Z,1021.22
2022-09-22T05:51:10.892Z,1021.22
2022-09-22T05:52:10.874Z,1021.23
2022-09-22T05:53:10.882Z,1021.22
2022-09-22T05:54:10.852Z,1021.28
2022-09-22T05:55:10.839Z,1021.27
2022-09-22T05:56:10.829Z,1021.26
2022-09-22T05:57:10.824Z,1021.25
2022-09-22T05:58:10.806Z,1021.32
2022-09-22T05:59:10.794Z,1021.27
2022-09-22T06:00:10.785Z,1021.22
2022-09-22T06:01:10.793Z,1021.27
2022-09-22T06:02:25.133Z,1021.29
2022-09-22T06:03:11.833Z,1021.29
2022-09-22T06:04:10.741Z,1021.28
2022-09-22T06:05:10.728Z,1021.27
2022-09-22T06:06:10.718Z,1021.26
2022-09-22T06:07:10.708Z,1021.29
2022-09-22T06:08:10.700Z,1021.31
2022-09-22T06:09:10.708Z,1021.31
2022-09-22T06:10:10.685Z,1021.34
2022-09-22T06:11:10.661Z,1021.33
2022-09-22T06:12:10.650Z,1021.42
2022-09-22T06:13:10.638Z,1021.37
2022-09-22T06:14:10.626Z,1021.38
2022-09-22T06:15:10.621Z,1021.41
2022-09-22T06:16:10.647Z,1021.37
2022-09-22T06:17:10.594Z,1021.36
2022-09-22T06:18:14.763Z,1021.36
2022-09-22T06:19:10.570Z,1021.39
2022-09-22T06:20:10.560Z,1021.40
2022-09-22T06:21:10.554Z,1021.37
2022-09-22T06:22:10.536Z,1021.44
2022-09-22T06:23:10.524Z,1021.40
2022-09-22T06:24:10.514Z,1021.38
2022-09-22T06:25:10.520Z,1021.41
2022-09-22T06:26:10.490Z,1021.45
2022-09-22T06:27:10.487Z,1021.47
2022-09-22T06:28:10.468Z,1021.45
2022-09-22T06:29:10.460Z,1021.48
2022-09-22T06:30:10.447Z,1021.51
2022-09-22T06:31:10.434Z,1021.49
2022-09-22T06:32:10.423Z,1021.46
2022-09-22T06:33:10.431Z,1021.47
2022-09-22T06:34:10.401Z,1021.47
2022-09-22T06:35:10.389Z,1021.46
2022-09-22T06:36:10.379Z,1021.50
2022-09-22T06:37:10.366Z,1021.50
2022-09-22T06:38:10.356Z,1021.45
2022-09-22T06:39:10.352Z,1021.53
2022-09-22T06:40:12.965Z,1021.48
2022-09-22T06:41:11.340Z,1021.46
2022-09-22T06:42:10.310Z,1021.49
2022-09-22T06:43:10.299Z,1021.47
2022-09-22T06:44:10.288Z,1021.42
2022-09-22T06:45:10.282Z,1021.45
2022-09-22T06:46:10.360Z,1021.45
2022-09-22T06:47:10.260Z,1021.44
2022-09-22T06:48:10.656Z,1021.43
2022-09-22T06:49:10.231Z,1021.45
2022-09-22T06:50:10.220Z,1021.43
2022-09-22T06:51:13.087Z,1021.42
2022-09-22T06:52:10.198Z,1021.43
2022-09-22T06:53:10.189Z,1021.45
2022-09-22T06:54:10.177Z,1021.39
2022-09-22T06:55:10.164Z,1021.43
2022-09-22T06:56:10.154Z,1021.40
2022-09-22T06:57:10.167Z,1021.41
2022-09-22T06:58:10.130Z,1021.42
2022-09-22T06:59:10.822Z,1021.38
2022-09-22T07:00:10.107Z,1021.43
2022-09-22T07:01:10.313Z,1021.43
2022-09-22T07:02:10.225Z,1021.42
2022-09-22T07:03:10.091Z,1021.43
2022-09-22T07:04:10.066Z,1021.39
2022-09-22T07:05:10.053Z,1021.42
2022-09-22T07:06:10.040Z,1021.40
2022-09-22T07:07:10.066Z,1021.38
2022-09-22T07:08:10.022Z,1021.41
2022-09-22T07:09:10.030Z,1021.40
2022-09-22T07:10:09.995Z,1021.40
2022-09-22T07:11:09.986Z,1021.37
2022-09-22T07:12:09.973Z,1021.40
2022-09-22T07:13:09.980Z,1021.40
2022-09-22T07:14:09.950Z,1021.40
2022-09-22T07:15:09.943Z,1021.42
2022-09-22T07:16:09.992Z,1021.40
2022-09-22T07:17:09.916Z,1021.46
2022-09-22T07:18:09.903Z,1021.45
2022-09-22T07:19:09.894Z,1021.45
2022-09-22T07:20:09.886Z,1021.46
2022-09-22T07:21:09.877Z,1021.47
2022-09-22T07:22:09.860Z,1021.44
2022-09-22T07:23:09.849Z,1021.46
2022-09-22T07:24:09.837Z,1021.44
2022-09-22T07:25:09.825Z,1021.44
2022-09-22T07:26:09.817Z,1021.48
2022-09-22T07:27:09.809Z,1021.47
2022-09-22T07:28:09.792Z,1021.45
2022-09-22T07:29:09.800Z,1021.45
2022-09-22T07:30:09.769Z,1021.47
2022-09-22T07:31:09.807Z,1021.43
2022-09-22T07:32:09.814Z,1021.46
2022-09-22T07:33:09.742Z,1021.44
2022-09-22T07:34:09.726Z,1021.41
2022-09-22T07:35:09.712Z,1021.41
2022-09-22T07:36:09.702Z,1021.38
2022-09-22T07:37:09.690Z,1021.42
2022-09-22T07:38:09.679Z,1021.41
2022-09-22T07:39:09.698Z,1021.41
2022-09-22T07:40:09.709Z,1021.39
2022-09-22T07:41:09.652Z,1021.34
2022-09-22T07:42:09.634Z,1021.35
2022-09-22T07:43:09.623Z,1021.36
2022-09-22T07:44:09.612Z,1021.39
2022-09-22T07:45:09.635Z,1021.36
2022-09-22T07:46:09.636Z,1021.35
2022-09-22T07:47:09.578Z,1021.36
2022-09-22T07:48:09.566Z,1021.38
2022-09-22T07:49:09.556Z,1021.37
2022-09-22T07:50:09.546Z,1021.40
2022-09-22T07:51:14.244Z,1021.41
2022-09-22T07:52:10.521Z,1021.39
2022-09-22T07:53:09.510Z,1021.41
2022-09-22T07:54:09.504Z,1021.39
2022-09-22T07:55:09.489Z,1021.39
2022-09-22T07:56:09.477Z,1021.41
2022-09-22T07:57:09.472Z,1021.42
2022-09-22T07:58:12.841Z,1021.46
2022-09-22T07:59:10.441Z,1021.45
2022-09-22T08:00:09.432Z,1021.42
2022-09-22T08:01:09.506Z,1021.45
2022-09-22T08:02:09.474Z,1021.45
2022-09-22T08:03:09.403Z,1021.46
2022-09-22T08:04:09.386Z,1021.47
2022-09-22T08:05:09.377Z,1021.44
2022-09-22T08:06:09.365Z,1021.45
2022-09-22T08:07:09.352Z,1021.44
2022-09-22T08:08:09.341Z,1021.48
2022-09-22T08:09:09.353Z,1021.43
2022-09-22T08:10:09.323Z,1021.48
2022-09-22T08:11:09.308Z,1021.44
2022-09-22T08:12:09.297Z,1021.44
2022-09-22T08:13:09.284Z,1021.41
2022-09-22T08:14:09.316Z,1021.51
2022-09-22T08:15:09.277Z,1021.45
2022-09-22T08:16:09.280Z,1021.49
2022-09-22T08:17:09.369Z,1021.44
2022-09-22T08:18:09.229Z,1021.42
2022-09-22T08:19:09.219Z,1021.41
2022-09-22T08:20:09.214Z,1021.42
2022-09-22T08:21:09.201Z,1021.45
2022-09-22T08:22:09.183Z,1021.46
2022-09-22T08:23:09.172Z,1021.46
2022-09-22T08:24:09.160Z,1021.48
2022-09-22T08:25:09.149Z,1021.47
2022-09-22T08:26:09.139Z,1021.43
2022-09-22T08:27:09.147Z,1021.50
2022-09-22T08:28:09.116Z,1021.53
2022-09-22T08:29:09.105Z,1021.52
2022-09-22T08:30:09.096Z,1021.53
2022-09-22T08:31:09.115Z,1021.52
2022-09-22T08:32:09.070Z,1021.52
2022-09-22T08:33:09.088Z,1021.53
2022-09-22T08:34:09.049Z,1021.50
2022-09-22T08:35:09.038Z,1021.52
2022-09-22T08:36:09.027Z,1021.52
2022-09-22T08:37:09.017Z,1021.51
2022-09-22T08:38:12.757Z,1021.52
2022-09-22T08:39:09.000Z,1021.53
2022-09-22T08:40:09.015Z,1021.49
2022-09-22T08:41:08.970Z,1021.53
2022-09-22T08:42:08.969Z,1021.53
2022-09-22T08:43:08.951Z,1021.52
2022-09-22T08:44:09.019Z,1021.53
2022-09-22T08:45:08.955Z,1021.52
2022-09-22T08:46:08.951Z,1021.56
2022-09-22T08:47:08.903Z,1021.52
2022-09-22T08:48:08.894Z,1021.54
2022-09-22T08:49:08.963Z,1021.47
2022-09-22T08:50:08.871Z,1021.48
2022-09-22T08:51:08.865Z,1021.49
2022-09-22T08:52:08.844Z,1021.48
2022-09-22T08:53:08.839Z,1021.50
2022-09-22T08:54:08.945Z,1021.49
2022-09-22T08:55:08.813Z,1021.45
2022-09-22T08:56:08.799Z,1021.41
2022-09-22T08:57:08.796Z,1021.43
2022-09-22T08:58:08.779Z,1021.39
2022-09-22T08:59:08.769Z,1021.38
2022-09-22T09:00:08.821Z,1021.41
2022-09-22T09:01:08.745Z,1021.40
2022-09-22T09:02:08.761Z,1021.42
2022-09-22T09:03:08.751Z,1021.41
2022-09-22T09:04:08.708Z,1021.40
2022-09-22T09:05:08.719Z,1021.41
2022-09-22T09:06:08.687Z,1021.44
2022-09-22T09:07:08.677Z,1021.40
2022-09-22T09:08:08.666Z,1021.43
2022-09-22T09:09:08.661Z,1021.39
2022-09-22T09:10:08.641Z,1021.38
2022-09-22T09:11:08.629Z,1021.41
2022-09-22T09:12:08.620Z,1021.43
2022-09-22T09:13:08.608Z,1021.43
2022-09-22T09:14:08.596Z,1021.44
2022-09-22T09:15:08.609Z,1021.45
2022-09-22T09:16:08.607Z,1021.40
2022-09-22T09:17:08.566Z,1021.42
2022-09-22T09:18:08.551Z,1021.40
2022-09-22T09:19:08.611Z,1021.41
2022-09-22T09:20:08.563Z,1021.37
2022-09-22T09:21:08.544Z,1021.40
2022-09-22T09:22:08.506Z,1021.39
2022-09-22T09:23:08.494Z,1021.38
2022-09-22T09:25:27.126Z,1021.38
2022-09-22T09:26:09.471Z,1021.38
2022-09-22T09:27:08.453Z,1021.37
2022-09-22T09:28:08.440Z,1021.43
2022-09-22T09:29:08.516Z,1021.41
2022-09-22T09:30:08.416Z,1021.39
2022-09-22T09:31:08.515Z,1021.31
2022-09-22T09:32:08.401Z,1021.33
2022-09-22T09:33:08.382Z,1021.34
2022-09-22T09:34:08.370Z,1021.31
2022-09-22T09:35:08.363Z,1021.32
2022-09-22T09:36:08.414Z,1021.31
2022-09-22T09:37:08.355Z,1021.32
2022-09-22T09:38:08.331Z,1021.33
2022-09-22T09:39:08.314Z,1021.29
2022-09-22T09:40:08.384Z,1021.31
2022-09-22T09:41:08.292Z,1021.32
2022-09-22T09:42:08.281Z,1021.30
2022-09-22T09:43:08.269Z,1021.31
2022-09-22T09:44:08.297Z,1021.29
2022-09-22T09:45:08.247Z,1021.32
2022-09-22T09:46:08.364Z,1021.36
2022-09-22T09:47:08.224Z,1021.40
2022-09-22T09:48:08.215Z,1021.31
2022-09-22T09:49:08.212Z,1021.30
2022-09-22T09:50:08.197Z,1021.30
2022-09-22T09:51:08.193Z,1021.30
2022-09-22T09:52:08.169Z,1021.31
2022-09-22T09:53:08.805Z,1021.32
2022-09-22T09:54:11.701Z,1021.31
2022-09-22T09:55:09.140Z,1021.31
2022-09-22T09:56:08.124Z,1021.27
2022-09-22T09:57:08.112Z,1021.28
2022-09-22T09:58:08.101Z,1021.28
2022-09-22T09:59:08.090Z,1021.30
2022-09-22T10:00:08.080Z,1021.33
2022-09-22T10:01:08.075Z,1021.29
2022-09-22T10:02:08.058Z,1021.28
2022-09-22T10:03:08.044Z,1021.30
2022-09-22T10:04:08.034Z,1021.29
2022-09-22T10:05:08.023Z,1021.29
2022-09-22T10:06:08.011Z,1021.26
2022-09-22T10:07:08.019Z,1021.29
2022-09-22T10:08:07.993Z,1021.28
2022-09-22T10:09:08.004Z,1021.30
2022-09-22T10:10:07.975Z,1021.28
2022-09-22T10:11:07.955Z,1021.25
2022-09-22T10:12:07.945Z,1021.24
2022-09-22T10:13:07.947Z,1021.24
2022-09-22T10:14:07.964Z,1021.25
2022-09-22T10:15:07.912Z,1021.28
2022-09-22T10:16:08.002Z,1021.24
2022-09-22T10:17:07.888Z,1021.24
2022-09-22T10:18:07.877Z,1021.25
2022-09-22T10:19:07.896Z,1021.25
2022-09-22T10:20:07.857Z,1021.25
2022-09-22T10:21:07.843Z,1021.27
2022-09-22T10:22:07.831Z,1021.24
2022-09-22T10:23:07.882Z,1021.23
2022-09-22T10:24:07.809Z,1021.28
2022-09-22T10:25:07.823Z,1021.26
2022-09-22T10:26:07.788Z,1021.24
2022-09-22T10:27:07.775Z,1021.24
2022-09-22T10:28:07.764Z,1021.20
2022-09-22T10:29:07.757Z,1021.21
2022-09-22T10:30:07.742Z,1021.21
2022-09-22T10:31:07.814Z,1021.19
2022-09-22T10:32:07.719Z,1021.20
2022-09-22T10:33:07.712Z,1021.13
2022-09-22T10:34:07.697Z,1021.14
2022-09-22T10:35:07.686Z,1021.17
2022-09-22T10:36:11.093Z,1021.22
2022-09-22T10:37:07.670Z,1021.21
2022-09-22T10:38:07.652Z,1021.18
2022-09-22T10:39:07.749Z,1021.19
2022-09-22T10:40:07.731Z,1021.19
2022-09-22T10:41:07.642Z,1021.20
2022-09-22T10:42:07.608Z,1021.18
2022-09-22T10:43:07.603Z,1021.20
2022-09-22T10:44:27.678Z,1021.19
2022-09-22T10:45:08.728Z,1021.19
2022-09-22T10:46:07.617Z,1021.16
2022-09-22T10:47:07.551Z,1021.17
2022-09-22T10:48:07.661Z,1021.18
2022-09-22T10:49:07.542Z,1021.21
2022-09-22T10:50:07.518Z,1021.18
2022-09-22T10:51:07.507Z,1021.21
2022-09-22T10:52:07.496Z,1021.21
2022-09-22T10:53:07.485Z,1021.21
2022-09-22T10:54:07.473Z,1021.20
2022-09-22T10:55:07.470Z,1021.18
2022-09-22T10:56:07.451Z,1021.19
2022-09-22T10:57:07.459Z,1021.19
2022-09-22T10:58:07.427Z,1021.22
2022-09-22T10:59:07.419Z,1021.22
2022-09-22T11:00:07.404Z,1021.15
2022-09-22T11:01:07.440Z,1021.18
2022-09-22T11:02:07.383Z,1021.14
2022-09-22T11:03:07.372Z,1021.12
2022-09-22T11:04:07.565Z,1021.15
2022-09-22T11:05:07.349Z,1021.05
2022-09-22T11:06:07.337Z,1021.08
2022-09-22T11:07:07.334Z,1021.09
2022-09-22T11:08:07.316Z,1021.09
2022-09-22T11:09:07.308Z,1021.08
2022-09-22T11:10:07.309Z,1021.08
2022-09-22T11:11:07.284Z,1021.07
2022-09-22T11:12:07.280Z,1021.08
2022-09-22T11:13:07.312Z,1021.06
2022-09-22T11:14:07.344Z,1021.03
2022-09-22T11:15:07.238Z,1021.04
2022-09-22T11:16:07.293Z,1021.04
2022-09-22T11:17:07.214Z,1021.06
2022-09-22T11:18:07.203Z,1021.01
2022-09-22T11:19:07.213Z,1021.03
2022-09-22T11:20:07.181Z,1021.09
2022-09-22T11:21:07.170Z,1020.98
2022-09-22T11:22:07.158Z,1021.03
2022-09-22T11:23:07.150Z,1020.95
2022-09-22T11:24:07.135Z,1020.99
2022-09-22T11:25:07.133Z,1021.00
2022-09-22T11:26:07.115Z,1021.00
2022-09-22T11:27:07.103Z,1020.95
2022-09-22T11:28:07.092Z,1020.93
2022-09-22T11:29:07.344Z,1020.90
2022-09-22T11:30:11.087Z,1020.91
2022-09-22T11:31:07.130Z,1020.87
2022-09-22T11:32:07.047Z,1020.91
2022-09-22T11:33:07.036Z,1020.86
2022-09-22T11:34:07.025Z,1020.86
2022-09-22T11:35:07.014Z,1020.84
2022-09-22T11:36:07.004Z,1020.83
2022-09-22T11:37:06.997Z,1020.83
2022-09-22T11:38:06.982Z,1020.84
2022-09-22T11:39:06.978Z,1020.83
2022-09-22T11:40:06.998Z,1020.84
2022-09-22T11:41:06.947Z,1020.85
2022-09-22T11:42:06.936Z,1020.81
2022-09-22T11:43:06.932Z,1020.79
2022-09-22T11:44:07.041Z,1020.78
2022-09-22T11:45:06.924Z,1020.78
2022-09-22T11:46:06.945Z,1020.78
2022-09-22T11:47:06.879Z,1020.75
2022-09-22T11:48:06.868Z,1020.75
2022-09-22T11:49:06.887Z,1020.71
2022-09-22T11:50:06.846Z,1020.72
2022-09-22T11:51:06.836Z,1020.68
2022-09-22T11:52:06.823Z,1020.74
2022-09-22T11:53:06.814Z,1020.68
2022-09-22T11:54:06.864Z,1020.68
2022-09-22T11:55:06.801Z,1020.70
2022-09-22T11:56:06.781Z,1020.68
2022-09-22T11:57:06.772Z,1020.71
2022-09-22T11:58:06.757Z,1020.70
2022-09-22T11:59:06.746Z,1020.66
2022-09-22T12:00:06.737Z,1020.70
2022-09-22T12:01:12.301Z,1020.71
2022-09-22T12:02:07.817Z,1020.69
2022-09-22T12:03:06.990Z,1020.71
2022-09-22T12:04:06.691Z,1020.66
2022-09-22T12:05:06.680Z,1020.61
2022-09-22T12:06:06.669Z,1020.66
2022-09-22T12:07:06.665Z,1020.64
2022-09-22T12:08:06.648Z,1020.63
2022-09-22T12:09:06.637Z,1020.61